Latest Weather Observations for Derby

IDW60801

Issued at 6:35 am WST Sunday 26 October 2014 (issued every 30 minutes, with the page automatically refreshed every 10 minutes)

About weather observations | Map of weather stations | Latest weather observations for WA | Other Formats
Station Details ID: 003032 Name: DERBY AERO Lat: -17.37 Lon: 123.66 Height: 6.2 m
Data from the previous 72 hours. | See also: Recent months at Derby
Date/Time
WST
Temp
°C
App
Temp
°C
Dew
Point
Rel
Hum
%
Delta-T
°C
Wind Press
QNH
hPa
Press
MSL
hPa
Rain
since 9 am
mm
Dir
 
Spd
km/h
Gust
km/h
Spd
kts
Gust
kts
26/06:30am 27.3 31.0 23.3 79 2.7 NNE 9 13 5 7 1013.7 1013.7 0.0
26/06:00am 26.0 30.1 22.9 83 2.1 ENE 6 7 3 4 1013.5 1013.5 0.0
26/05:30am 25.1 29.0 22.6 86 1.7 NE 6 6 3 3 1012.8 1012.8 0.0
26/05:00am 25.4 29.4 22.7 85 1.8 ENE 6 9 3 5 1012.7 1012.7 0.0
26/04:30am 25.3 29.0 22.6 85 1.8 E 7 11 4 6 1012.6 1012.6 0.0
26/04:00am 25.1 28.9 22.4 85 1.8 E 6 7 3 4 1012.2 1012.2 0.0
26/03:30am 25.1 28.5 22.0 83 2.1 N 7 11 4 6 1011.6 1011.6 0.0
26/03:00am 24.9 27.9 22.0 84 1.9 NE 9 13 5 7 1011.4 1011.4 0.0
26/02:30am 25.3 28.5 21.6 80 2.5 NW 7 9 4 5 1010.7 1010.7 0.0
26/02:00am 25.5 28.3 21.6 79 2.6 NW 9 11 5 6 1010.5 1010.5 0.0
26/01:30am 25.5 28.0 21.8 80 2.5 WNW 11 13 6 7 1010.7 1010.7 0.0
26/01:00am 25.9 28.7 21.6 77 2.9 WNW 9 11 5 6 1010.8 1010.8 0.0
26/12:30am 26.0 28.9 21.0 74 3.3 W 7 11 4 6 1011.2 1011.2 0.0
26/12:00am 26.8 28.8 21.5 72 3.5 W 13 17 7 9 1011.4 1011.4 0.0
 
Date/Time
WST
Temp
°C
App
Temp
°C
Dew
Point
Rel
Hum
%
Delta-T
°C
Wind Press
QNH
hPa
Press
MSL
hPa
Rain
since 9 am
mm
Dir
 
Spd
km/h
Gust
km/h
Spd
kts
Gust
kts
25/11:30pm 27.1 28.6 21.2 70 3.9 W 15 19 8 10 1011.6 1011.6 0.0
25/11:00pm 27.3 29.3 21.6 71 3.8 NW 13 15 7 8 1011.8 1011.8 0.0
25/10:30pm 27.8 29.3 21.3 67 4.3 WNW 15 17 8 9 1012.0 1012.0 0.0
25/10:00pm 28.0 29.9 21.3 67 4.5 WNW 13 17 7 9 1012.3 1012.3 0.0
25/09:30pm 28.7 29.3 21.0 63 5.1 W 19 26 10 14 1012.5 1012.5 0.0
25/09:00pm 29.0 29.7 21.5 64 5.0 WNW 20 24 11 13 1012.3 1012.3 0.0
25/08:30pm 29.4 31.0 22.1 65 4.9 WNW 17 22 9 12 1012.3 1012.3 0.0
25/08:00pm 29.8 30.9 22.3 64 5.1 WNW 20 26 11 14 1012.1 1012.1 0.0
25/07:30pm 30.3 31.0 22.2 62 5.5 WNW 22 33 12 18 1011.8 1011.8 0.0
25/07:00pm 30.8 31.3 21.9 59 6.0 NW 22 28 12 15 1011.5 1011.5 0.0
25/06:30pm 30.9 31.3 23.8 66 4.9 NNW 28 33 15 18 1011.0 1011.0 0.0
25/06:00pm 30.5 30.9 24.4 70 4.3 NNW 30 37 16 20 1010.5 1010.5 0.0
25/05:30pm 30.5 30.2 23.9 68 4.6 NNW 32 39 17 21 1010.5 1010.5 0.0
25/05:00pm 30.8 30.6 24.0 67 4.7 NNW 32 41 17 22 1010.2 1010.2 0.0
25/04:30pm 31.3 30.9 23.7 64 5.3 N 32 41 17 22 1010.0 1010.0 0.0
25/04:00pm 31.9 31.5 23.7 62 5.7 N 32 39 17 21 1010.0 1010.0 0.0
25/03:30pm 32.2 31.1 22.9 58 6.4 NNW 33 39 18 21 1010.3 1010.3 0.0
25/03:00pm 32.0 31.2 23.0 59 6.2 NNW 32 39 17 21 1010.3 1010.3 0.0
25/02:30pm 33.5 33.5 23.8 57 6.8 NNW 30 41 16 22 1010.7 1010.7 0.0
25/02:00pm 33.2 33.1 22.9 54 7.1 NNW 28 33 15 18 1011.0 1011.0 0.0
25/01:30pm 33.4 33.1 22.5 52 7.5 NNW 28 35 15 19 1011.2 1011.2 0.0
25/01:00pm 33.9 34.7 21.7 49 8.3 NW 20 30 11 16 1011.5 1011.5 0.0
25/12:30pm 33.8 35.5 21.6 49 8.3 NW 15 26 8 14 1011.9 1011.9 0.0
25/12:00pm 33.6 35.7 21.7 49 8.1 NW 13 24 7 13 1012.6 1012.6 0.0
25/11:30am 33.6 35.5 21.4 48 8.3 NW 13 20 7 11 1013.3 1013.3 0.0
25/11:00am 32.7 35.1 21.5 51 7.6 NNW 11 19 6 10 1014.0 1014.0 0.0
25/10:30am 31.5 33.2 21.7 56 6.6 WNW 15 24 8 13 1014.4 1014.4 0.0
25/10:00am 31.5 34.0 22.5 59 6.1 NW 13 19 7 10 1014.8 1014.8 0.0
25/09:30am 30.8 32.5 22.4 61 5.7 WNW 17 22 9 12 1014.9 1014.9 0.0
25/09:00am 30.0 31.9 22.7 65 5.0 NW 17 20 9 11 1015.4 1015.4 0.0
25/08:30am 29.7 32.0 23.4 69 4.3 WNW 17 28 9 15 1015.5 1015.5 0.0
25/08:00am 29.2 31.9 23.4 71 4.0 WNW 15 22 8 12 1015.8 1015.8 0.0
25/07:30am 28.8 31.5 23.5 73 3.6 NW 15 19 8 10 1015.5 1015.5 0.0
25/07:00am 27.7 29.9 23.3 77 3.0 WNW 17 20 9 11 1015.0 1015.0 0.0
25/06:30am 27.4 29.8 23.0 77 3.0 NW 15 19 8 10 1014.6 1014.6 0.0
25/06:00am 26.8 29.7 23.1 80 2.5 NW 13 17 7 9 1014.2 1014.2 0.0
25/05:30am 26.1 28.9 23.0 83 2.1 NW 13 15 7 8 1013.8 1013.8 0.0
25/05:00am 26.2 28.9 22.9 82 2.2 NW 13 15 7 8 1013.5 1013.5 0.0
25/04:30am 26.5 28.9 23.0 81 2.4 NW 15 19 8 10 1013.2 1013.2 0.0
25/04:00am 26.5 29.2 23.4 83 2.1 NW 15 19 8 10 1012.8 1012.8 0.0
25/03:30am 26.6 28.2 23.3 82 2.3 NNW 20 24 11 13 1012.0 1012.0 0.0
25/03:00am 26.7 28.5 23.2 81 2.4 NNW 19 22 10 12 1012.0 1012.0 0.0
25/02:30am 26.8 28.5 22.4 77 3.0 NW 17 20 9 11 1011.3 1011.3 0.0
25/02:00am 26.8 28.0 22.2 76 3.1 NW 19 22 10 12 1011.0 1011.0 0.0
25/01:30am 26.8 27.9 22.0 75 3.2 NW 19 22 10 12 1011.1 1011.1 0.0
25/01:00am 26.8 28.3 22.0 75 3.2 NW 17 20 9 11 1011.1 1011.1 0.0
25/12:30am 26.9 28.5 22.1 75 3.2 WNW 17 20 9 11 1011.5 1011.5 0.0
25/12:00am 26.8 29.3 22.4 77 3.0 WNW 13 17 7 9 1012.2 1012.2 0.0
 
Date/Time
WST
Temp
°C
App
Temp
°C
Dew
Point
Rel
Hum
%
Delta-T
°C
Wind Press
QNH
hPa
Press
MSL
hPa
Rain
since 9 am
mm
Dir
 
Spd
km/h
Gust
km/h
Spd
kts
Gust
kts
24/11:30pm 27.3 29.8 22.5 75 3.2 W 13 17 7 9 1012.3 1012.3 0.0
24/11:00pm 27.8 30.4 22.7 74 3.5 NW 13 17 7 9 1012.0 1012.0 0.0
24/10:30pm 28.0 30.0 22.2 70 3.9 NW 15 17 8 9 1012.0 1012.0 0.0
24/10:00pm 28.4 30.5 21.7 67 4.5 NW 13 17 7 9 1012.1 1012.1 0.0
24/09:30pm 28.4 31.1 22.2 69 4.2 WNW 11 13 6 7 1012.1 1012.1 0.0
24/09:00pm 29.4 31.3 22.1 65 4.9 NW 15 17 8 9 1012.0 1012.0 0.0
24/08:30pm 29.9 31.6 21.6 61 5.6 NW 15 17 8 9 1011.6 1011.6 0.0
24/08:00pm 30.3 31.0 20.5 55 6.5 NNW 17 20 9 11 1011.3 1011.3 0.0
24/07:30pm 30.5 31.9 21.8 59 5.9 NW 17 20 9 11 1011.0 1011.0 0.0
24/07:00pm 30.3 32.2 23.7 68 4.6 NNW 20 24 11 13 1010.7 1010.7 0.0
24/06:30pm 30.2 31.5 23.4 67 4.7 NNW 22 28 12 15 1010.6 1010.6 0.0
24/06:00pm 30.3 31.5 23.2 65 4.9 N 22 26 12 14 1010.2 1010.2 0.0
24/05:30pm 30.3 31.7 23.5 67 4.7 N 22 28 12 15 1009.8 1009.8 0.0
24/05:00pm 31.3 32.2 23.4 63 5.5 NNW 24 30 13 16 1009.6 1009.6 0.0
24/04:30pm 32.0 32.2 23.5 60 5.9 NNW 28 32 15 17 1009.5 1009.5 0.0
24/04:00pm 32.8 32.7 22.9 56 6.8 NNW 28 35 15 19 1009.5 1009.5 0.0
24/03:30pm 32.5 32.4 22.3 55 7.0 NNW 26 33 14 18 1009.7 1009.7 0.0
24/03:00pm 33.0 32.3 21.8 51 7.6 NNW 28 35 15 19 1010.0 1010.0 0.0
24/02:30pm 34.2 33.9 22.6 50 8.0 NNW 28 33 15 18 1010.0 1010.0 0.0
24/02:00pm 33.7 33.5 22.1 50 7.9 NNW 26 33 14 18 1010.3 1010.3 0.0
24/01:30pm 34.3 34.8 22.0 48 8.4 NNW 22 28 12 15 1010.6 1010.6 0.0
24/01:00pm 34.4 35.8 21.8 48 8.6 NW 17 26 9 14 1010.9 1010.9 0.0
24/12:30pm 33.1 34.6 21.3 50 8.0 N 15 19 8 10 1011.4 1011.4 0.0
24/12:00pm 34.1 35.7 21.5 47 8.6 NNW 15 28 8 15 1011.9 1011.9 0.0
24/11:30am 33.2 34.2 21.0 48 8.2 NNW 17 26 9 14 1012.2 1012.2 0.0
24/11:00am 32.2 33.5 20.8 51 7.6 NW 15 24 8 13 1012.7 1012.7 0.0
24/10:30am 32.1 33.4 21.6 53 7.1 NW 17 24 9 13 1013.1 1013.1 0.0
24/10:00am 31.5 32.9 21.9 56 6.5 NW 17 24 9 13 1013.5 1013.5 0.0
24/09:30am 30.6 31.8 21.4 58 6.2 NW 17 24 9 13 1013.8 1013.8 0.0
24/09:00am 30.4 32.7 22.0 60 5.7 NW 13 20 7 11 1014.0 1014.0 0.0
24/08:30am 30.1 32.9 23.0 65 4.9 WNW 13 20 7 11 1014.0 1014.0 0.0
24/08:00am 29.3 32.8 22.8 68 4.4 WNW 9 17 5 9 1013.9 1013.9 0.0
24/07:30am 29.3 32.2 22.5 67 4.6 NW 11 17 6 9 1013.9 1013.9 0.0
24/07:00am 28.5 32.2 23.2 73 3.6 NW 9 17 5 9 1013.7 1013.7 0.0
24/06:30am 28.1 31.6 23.5 76 3.2 W 11 15 6 8 1013.3 1013.3 0.0
24/06:00am 27.4 30.9 23.6 80 2.6 NW 11 13 6 7 1012.7 1012.7 0.0
24/05:30am 26.9 30.4 23.6 82 2.3 WNW 11 15 6 8 1012.5 1012.5 0.0
24/05:00am 27.1 30.1 23.3 80 2.6 NW 13 17 7 9 1012.2 1012.2 0.0
24/04:30am 27.1 29.9 23.6 81 2.4 NNW 15 19 8 10 1011.9 1011.9 0.0
24/04:00am 27.0 30.3 23.9 83 2.1 NW 13 15 7 8 1011.5 1011.5 0.0
24/03:30am 27.0 29.8 23.7 82 2.3 NW 15 19 8 10 1011.1 1011.1 0.0
24/03:00am 27.0 29.2 23.9 83 2.1 NW 19 22 10 12 1010.6 1010.6 0.0
24/02:30am 27.0 29.1 23.7 82 2.3 WNW 19 24 10 13 1010.4 1010.4 0.0
24/02:00am 26.8 28.7 23.7 83 2.1 WNW 20 24 11 13 1010.3 1010.3 0.0
24/01:30am 26.8 28.2 23.5 82 2.3 WNW 22 28 12 15 1010.1 1010.1 0.0
24/01:00am 27.0 28.1 23.7 82 2.3 WNW 24 32 13 17 1010.4 1010.4 0.0
24/12:30am 27.3 27.9 24.2 83 2.1 WNW 28 33 15 18 1010.9 1010.9 0.0
24/12:00am 27.5 28.8 24.1 82 2.3 WNW 24 32 13 17 1011.4 1011.4 0.0
 
Date/Time
WST
Temp
°C
App
Temp
°C
Dew
Point
Rel
Hum
%
Delta-T
°C
Wind Press
QNH
hPa
Press
MSL
hPa
Rain
since 9 am
mm
Dir
 
Spd
km/h
Gust
km/h
Spd
kts
Gust
kts
23/11:30pm 27.5 29.6 24.7 85 1.9 WNW 22 26 12 14 1011.7 1011.7 0.0
23/11:00pm 27.7 29.2 24.3 82 2.4 NW 24 32 13 17 1011.9 1011.9 0.0
23/10:30pm 28.0 28.9 23.4 76 3.2 WNW 24 30 13 16 1011.9 1011.9 0.0
23/10:00pm 28.1 29.0 19.3 58 5.7 NW 13 15 7 8 1012.8 1012.8 0.0
23/09:30pm 28.1 28.7 17.6 53 6.6 NNW 11 13 6 7 1013.0 1013.0 0.0
23/09:00pm 28.3 28.4 17.5 52 6.8 N 13 15 7 8 1013.0 1013.0 0.0
23/08:30pm 28.6 29.2 17.8 52 6.9 NE 11 17 6 9 1013.1 1013.1 0.0
23/08:00pm 29.2 29.9 18.0 51 7.1 ENE 11 13 6 7 1013.2 1013.2 0.0
23/07:30pm 29.9 30.4 19.3 53 6.9 E 15 24 8 13 1013.1 1013.1 0.0
23/07:00pm 29.7 30.9 22.2 64 5.1 ENE 19 24 10 13 1013.2 1013.2 0.0
23/06:30pm 29.1 29.9 23.1 70 4.1 N 24 30 13 16 1011.7 1011.7 0.0
23/06:00pm 29.4 28.6 23.1 69 4.3 N 32 43 17 23 1010.9 1010.9 0.0
23/05:30pm 30.0 29.3 23.2 67 4.7 N 32 41 17 22 1009.8 1009.8 0.0
23/05:00pm 31.0 30.2 23.4 64 5.3 N 33 43 18 23 1009.2 1009.2 0.0
23/04:30pm 31.4 30.3 23.5 63 5.5 N 35 44 19 24 1008.7 1008.7 0.0
23/04:00pm 31.6 30.3 23.2 61 5.8 NNW 35 44 19 24 1008.5 1008.5 0.0
23/03:30pm 31.7 30.4 23.8 63 5.5 NNW 37 48 20 26 1008.6 1008.6 0.0
23/03:00pm 32.5 31.5 23.7 59 6.1 NNW 35 43 19 23 1008.9 1008.9 0.0
23/02:30pm 32.9 30.9 23.2 56 6.7 NNW 39 44 21 24 1009.2 1009.2 0.0
23/02:00pm 32.8 31.2 23.2 57 6.6 NNW 37 44 20 24 1009.4 1009.4 0.0
23/01:30pm 33.9 33.5 23.0 53 7.5 NNW 30 35 16 19 1009.7 1009.7 0.0
23/01:00pm 33.6 32.8 22.4 52 7.7 N 30 37 16 20 1010.1 1010.1 0.0
23/12:30pm 34.0 34.4 22.4 50 8.0 NNW 24 33 13 18 1010.7 1010.7 0.0
23/12:00pm 33.6 34.6 22.1 51 7.9 N 20 28 11 15 1011.2 1011.2 0.0
23/11:30am 32.8 33.7 22.0 53 7.4 N 20 32 11 17 1011.7 1011.7 0.0
23/11:00am 32.8 34.1 22.6 55 7.0 N 20 32 11 17 1012.5 1012.5 0.0
23/10:30am 32.1 32.0 22.2 56 6.7 NNW 26 33 14 18 1012.4 1012.4 0.0
23/10:00am 31.5 31.6 22.5 59 6.1 NNW 26 33 14 18 1012.7 1012.7 0.0
23/09:30am 30.3 30.7 22.5 63 5.3 NNW 24 33 13 18 1013.1 1013.1 0.0
23/09:00am 30.2 31.8 22.9 65 5.0 N 19 24 10 13 1013.3 1013.3 0.0
23/08:30am 29.6 31.0 22.6 66 4.8 NW 19 24 10 13 1013.4 1013.4 0.0
23/08:00am 29.1 31.0 22.8 69 4.3 NNW 17 22 9 12 1013.5 1013.5 0.0
23/07:30am 28.5 30.4 23.4 74 3.5 NNW 19 26 10 14 1013.3 1013.3 0.0
23/07:00am 28.1 29.9 23.2 74 3.4 NNW 19 24 10 13 1012.5 1012.5 0.0

Other Formats:

Comma delimited format used in spreadsheet applications
http://www.bom.gov.au/fwo/IDW60801/IDW60801.95205.axf

JavaScript Object Notation format (JSON) in row-major order
http://www.bom.gov.au/fwo/IDW60801/IDW60801.95205.json